sensor_id;sensor_type;location;lat;lon;timestamp;P1;durP1;ratioP1;P2;durP2;ratioP2
43682;SDS011;29285;52.128;21.060;2023-08-06T00:00:20;27.30;;;16.30;;
43682;SDS011;29285;52.128;21.060;2023-08-06T00:05:42;28.50;;;16.90;;
43682;SDS011;29285;52.128;21.060;2023-08-06T00:10:44;21.70;;;15.50;;
43682;SDS011;29285;52.128;21.060;2023-08-06T00:15:45;27.50;;;16.40;;
43682;SDS011;29285;52.128;21.060;2023-08-06T00:20:47;31.10;;;18.60;;
43682;SDS011;29285;52.128;21.060;2023-08-06T00:25:49;23.20;;;17.00;;
43682;SDS011;29285;52.128;21.060;2023-08-06T00:30:54;30.50;;;17.80;;
43682;SDS011;29285;52.128;21.060;2023-08-06T00:35:58;20.20;;;14.40;;
43682;SDS011;29285;52.128;21.060;2023-08-06T00:41:00;20.10;;;15.80;;
43682;SDS011;29285;52.128;21.060;2023-08-06T00:46:01;18.40;;;13.60;;
43682;SDS011;29285;52.128;21.060;2023-08-06T00:51:03;14.60;;;12.90;;
43682;SDS011;29285;52.128;21.060;2023-08-06T00:56:06;16.50;;;12.60;;
43682;SDS011;29285;52.128;21.060;2023-08-06T01:06:10;12.50;;;10.20;;
43682;SDS011;29285;52.128;21.060;2023-08-06T01:16:39;14.70;;;11.10;;
43682;SDS011;29285;52.128;21.060;2023-08-06T01:21:41;12.10;;;9.50;;
43682;SDS011;29285;52.128;21.060;2023-08-06T01:26:51;13.60;;;8.30;;
43682;SDS011;29285;52.128;21.060;2023-08-06T01:32:15;10.60;;;9.50;;
43682;SDS011;29285;52.128;21.060;2023-08-06T01:37:17;9.00;;;7.70;;
43682;SDS011;29285;52.128;21.060;2023-08-06T01:42:19;9.50;;;7.60;;
43682;SDS011;29285;52.128;21.060;2023-08-06T01:47:20;10.70;;;9.60;;
43682;SDS011;29285;52.128;21.060;2023-08-06T01:52:22;10.40;;;9.30;;
43682;SDS011;29285;52.128;21.060;2023-08-06T01:57:24;14.00;;;9.30;;
43682;SDS011;29285;52.128;21.060;2023-08-06T02:02:25;11.60;;;7.50;;
43682;SDS011;29285;52.128;21.060;2023-08-06T02:07:27;9.20;;;8.20;;
43682;SDS011;29285;52.128;21.060;2023-08-06T02:12:29;8.50;;;7.70;;
43682;SDS011;29285;52.128;21.060;2023-08-06T02:17:31;8.60;;;7.60;;
43682;SDS011;29285;52.128;21.060;2023-08-06T02:22:33;9.90;;;7.40;;
43682;SDS011;29285;52.128;21.060;2023-08-06T02:27:34;7.40;;;6.60;;
43682;SDS011;29285;52.128;21.060;2023-08-06T02:32:36;9.40;;;7.60;;
43682;SDS011;29285;52.128;21.060;2023-08-06T02:37:38;9.50;;;8.00;;
43682;SDS011;29285;52.128;21.060;2023-08-06T02:42:39;9.60;;;8.60;;
43682;SDS011;29285;52.128;21.060;2023-08-06T02:47:41;8.90;;;8.10;;
43682;SDS011;29285;52.128;21.060;2023-08-06T02:52:43;11.50;;;8.00;;
43682;SDS011;29285;52.128;21.060;2023-08-06T02:57:44;6.50;;;5.90;;
43682;SDS011;29285;52.128;21.060;2023-08-06T03:02:46;9.00;;;7.90;;
43682;SDS011;29285;52.128;21.060;2023-08-06T03:07:47;7.70;;;7.00;;
43682;SDS011;29285;52.128;21.060;2023-08-06T03:12:49;12.00;;;7.60;;
43682;SDS011;29285;52.128;21.060;2023-08-06T03:17:51;9.60;;;8.50;;
43682;SDS011;29285;52.128;21.060;2023-08-06T03:22:53;9.10;;;8.20;;
43682;SDS011;29285;52.128;21.060;2023-08-06T03:27:54;12.50;;;9.60;;
43682;SDS011;29285;52.128;21.060;2023-08-06T03:32:56;11.70;;;10.50;;
43682;SDS011;29285;52.128;21.060;2023-08-06T03:37:57;11.90;;;10.10;;
43682;SDS011;29285;52.128;21.060;2023-08-06T03:42:59;10.60;;;8.80;;
43682;SDS011;29285;52.128;21.060;2023-08-06T03:48:00;11.20;;;9.60;;
43682;SDS011;29285;52.128;21.060;2023-08-06T03:53:02;11.20;;;8.90;;
43682;SDS011;29285;52.128;21.060;2023-08-06T03:58:04;13.30;;;11.40;;
43682;SDS011;29285;52.128;21.060;2023-08-06T04:03:06;12.30;;;10.10;;
43682;SDS011;29285;52.128;21.060;2023-08-06T04:08:07;9.60;;;8.80;;
43682;SDS011;29285;52.128;21.060;2023-08-06T04:13:09;9.00;;;8.10;;
43682;SDS011;29285;52.128;21.060;2023-08-06T04:18:11;15.50;;;9.00;;
43682;SDS011;29285;52.128;21.060;2023-08-06T04:23:13;17.70;;;11.80;;
43682;SDS011;29285;52.128;21.060;2023-08-06T04:28:14;12.60;;;11.20;;
43682;SDS011;29285;52.128;21.060;2023-08-06T04:33:16;14.40;;;13.10;;
43682;SDS011;29285;52.128;21.060;2023-08-06T04:38:18;15.40;;;13.80;;
43682;SDS011;29285;52.128;21.060;2023-08-06T04:43:19;9.70;;;8.80;;
43682;SDS011;29285;52.128;21.060;2023-08-06T04:48:21;13.00;;;11.70;;
43682;SDS011;29285;52.128;21.060;2023-08-06T04:53:23;14.00;;;12.60;;
43682;SDS011;29285;52.128;21.060;2023-08-06T04:58:25;13.90;;;11.20;;
43682;SDS011;29285;52.128;21.060;2023-08-06T05:03:27;11.10;;;10.00;;
43682;SDS011;29285;52.128;21.060;2023-08-06T05:08:29;15.30;;;12.10;;
43682;SDS011;29285;52.128;21.060;2023-08-06T05:13:30;10.00;;;9.20;;
43682;SDS011;29285;52.128;21.060;2023-08-06T05:18:32;14.00;;;12.70;;
43682;SDS011;29285;52.128;21.060;2023-08-06T05:23:35;13.10;;;11.70;;
43682;SDS011;29285;52.128;21.060;2023-08-06T05:28:37;13.70;;;12.40;;
43682;SDS011;29285;52.128;21.060;2023-08-06T05:33:38;13.10;;;11.90;;
43682;SDS011;29285;52.128;21.060;2023-08-06T05:38:40;11.40;;;10.10;;
43682;SDS011;29285;52.128;21.060;2023-08-06T05:43:42;13.70;;;9.60;;
43682;SDS011;29285;52.128;21.060;2023-08-06T05:48:44;10.30;;;9.30;;
43682;SDS011;29285;52.128;21.060;2023-08-06T05:53:46;9.90;;;8.90;;
43682;SDS011;29285;52.128;21.060;2023-08-06T05:58:48;10.30;;;8.90;;
43682;SDS011;29285;52.128;21.060;2023-08-06T06:03:52;16.30;;;10.10;;
43682;SDS011;29285;52.128;21.060;2023-08-06T06:08:54;10.50;;;9.10;;
43682;SDS011;29285;52.128;21.060;2023-08-06T06:13:55;10.40;;;9.20;;
43682;SDS011;29285;52.128;21.060;2023-08-06T06:18:57;10.90;;;9.80;;
43682;SDS011;29285;52.128;21.060;2023-08-06T06:23:59;10.90;;;9.90;;
43682;SDS011;29285;52.128;21.060;2023-08-06T06:29:00;10.90;;;9.80;;
43682;SDS011;29285;52.128;21.060;2023-08-06T06:34:02;13.50;;;9.70;;
43682;SDS011;29285;52.128;21.060;2023-08-06T06:39:04;15.70;;;10.40;;
43682;SDS011;29285;52.128;21.060;2023-08-06T06:44:06;11.80;;;10.00;;
43682;SDS011;29285;52.128;21.060;2023-08-06T06:49:07;11.80;;;9.80;;
43682;SDS011;29285;52.128;21.060;2023-08-06T06:54:09;14.10;;;9.80;;
43682;SDS011;29285;52.128;21.060;2023-08-06T06:59:10;11.80;;;10.40;;
43682;SDS011;29285;52.128;21.060;2023-08-06T07:04:12;17.90;;;10.00;;
43682;SDS011;29285;52.128;21.060;2023-08-06T07:09:13;13.30;;;10.00;;
43682;SDS011;29285;52.128;21.060;2023-08-06T07:14:15;10.20;;;9.20;;
43682;SDS011;29285;52.128;21.060;2023-08-06T07:19:17;13.40;;;10.00;;
43682;SDS011;29285;52.128;21.060;2023-08-06T07:24:19;13.20;;;10.50;;
43682;SDS011;29285;52.128;21.060;2023-08-06T07:29:20;12.60;;;9.70;;
43682;SDS011;29285;52.128;21.060;2023-08-06T07:34:23;10.50;;;9.50;;
43682;SDS011;29285;52.128;21.060;2023-08-06T07:39:25;14.10;;;10.50;;
43682;SDS011;29285;52.128;21.060;2023-08-06T07:44:27;13.00;;;11.60;;
43682;SDS011;29285;52.128;21.060;2023-08-06T07:49:28;12.60;;;9.80;;
43682;SDS011;29285;52.128;21.060;2023-08-06T07:54:30;13.60;;;11.00;;
43682;SDS011;29285;52.128;21.060;2023-08-06T07:59:32;10.80;;;9.80;;
43682;SDS011;29285;52.128;21.060;2023-08-06T08:04:33;11.40;;;10.40;;
43682;SDS011;29285;52.128;21.060;2023-08-06T08:09:35;11.50;;;10.30;;
43682;SDS011;29285;52.128;21.060;2023-08-06T08:14:37;11.50;;;9.80;;
43682;SDS011;29285;52.128;21.060;2023-08-06T08:19:39;13.80;;;10.20;;
43682;SDS011;29285;52.128;21.060;2023-08-06T08:24:41;14.20;;;9.90;;
43682;SDS011;29285;52.128;21.060;2023-08-06T08:29:43;14.80;;;10.10;;
43682;SDS011;29285;52.128;21.060;2023-08-06T08:34:45;14.10;;;10.60;;
43682;SDS011;29285;52.128;21.060;2023-08-06T08:39:47;19.50;;;10.20;;
43682;SDS011;29285;52.128;21.060;2023-08-06T08:44:48;10.70;;;9.50;;
43682;SDS011;29285;52.128;21.060;2023-08-06T08:49:52;12.00;;;9.70;;
43682;SDS011;29285;52.128;21.060;2023-08-06T08:54:56;9.90;;;8.80;;
43682;SDS011;29285;52.128;21.060;2023-08-06T08:59:57;11.30;;;9.70;;
43682;SDS011;29285;52.128;21.060;2023-08-06T09:05:00;11.20;;;9.10;;
43682;SDS011;29285;52.128;21.060;2023-08-06T09:10:05;10.20;;;9.00;;
43682;SDS011;29285;52.128;21.060;2023-08-06T09:15:11;18.80;;;9.00;;
43682;SDS011;29285;52.128;21.060;2023-08-06T09:20:13;9.90;;;8.60;;
43682;SDS011;29285;52.128;21.060;2023-08-06T09:25:22;10.70;;;8.40;;
43682;SDS011;29285;52.128;21.060;2023-08-06T09:30:33;9.90;;;8.70;;
43682;SDS011;29285;52.128;21.060;2023-08-06T09:35:35;13.30;;;9.00;;
43682;SDS011;29285;52.128;21.060;2023-08-06T09:40:37;9.40;;;8.50;;
43682;SDS011;29285;52.128;21.060;2023-08-06T09:45:39;9.10;;;8.10;;
43682;SDS011;29285;52.128;21.060;2023-08-06T09:50:41;12.40;;;7.70;;
43682;SDS011;29285;52.128;21.060;2023-08-06T09:55:43;10.00;;;8.80;;
43682;SDS011;29285;52.128;21.060;2023-08-06T10:00:46;9.00;;;7.70;;
43682;SDS011;29285;52.128;21.060;2023-08-06T10:05:47;9.40;;;7.60;;
43682;SDS011;29285;52.128;21.060;2023-08-06T10:10:49;8.30;;;7.40;;
43682;SDS011;29285;52.128;21.060;2023-08-06T10:15:51;9.80;;;8.20;;
43682;SDS011;29285;52.128;21.060;2023-08-06T10:20:53;8.10;;;7.30;;
43682;SDS011;29285;52.128;21.060;2023-08-06T10:25:55;9.60;;;8.60;;
43682;SDS011;29285;52.128;21.060;2023-08-06T10:30:57;8.70;;;8.00;;
43682;SDS011;29285;52.128;21.060;2023-08-06T10:36:00;9.20;;;7.20;;
43682;SDS011;29285;52.128;21.060;2023-08-06T10:41:03;14.50;;;7.50;;
43682;SDS011;29285;52.128;21.060;2023-08-06T10:46:26;8.20;;;7.20;;
43682;SDS011;29285;52.128;21.060;2023-08-06T10:51:30;8.50;;;7.30;;
43682;SDS011;29285;52.128;21.060;2023-08-06T10:56:31;7.50;;;6.70;;
43682;SDS011;29285;52.128;21.060;2023-08-06T11:01:41;7.80;;;6.00;;
43682;SDS011;29285;52.128;21.060;2023-08-06T11:06:43;11.20;;;6.90;;
43682;SDS011;29285;52.128;21.060;2023-08-06T11:11:44;9.50;;;6.20;;
43682;SDS011;29285;52.128;21.060;2023-08-06T11:16:46;7.20;;;6.60;;
43682;SDS011;29285;52.128;21.060;2023-08-06T11:21:48;6.80;;;6.10;;
43682;SDS011;29285;52.128;21.060;2023-08-06T11:26:49;12.80;;;6.20;;
43682;SDS011;29285;52.128;21.060;2023-08-06T11:31:51;8.20;;;6.50;;
43682;SDS011;29285;52.128;21.060;2023-08-06T11:36:53;9.20;;;6.60;;
43682;SDS011;29285;52.128;21.060;2023-08-06T11:41:54;8.70;;;6.60;;
43682;SDS011;29285;52.128;21.060;2023-08-06T11:46:56;7.20;;;5.70;;
43682;SDS011;29285;52.128;21.060;2023-08-06T11:51:58;8.70;;;6.10;;
43682;SDS011;29285;52.128;21.060;2023-08-06T11:56:59;6.40;;;5.80;;
43682;SDS011;29285;52.128;21.060;2023-08-06T12:02:03;6.20;;;5.60;;
43682;SDS011;29285;52.128;21.060;2023-08-06T12:07:09;6.20;;;5.60;;
43682;SDS011;29285;52.128;21.060;2023-08-06T12:12:11;7.40;;;6.20;;
43682;SDS011;29285;52.128;21.060;2023-08-06T12:17:12;8.20;;;6.70;;
43682;SDS011;29285;52.128;21.060;2023-08-06T12:22:14;10.80;;;6.80;;
43682;SDS011;29285;52.128;21.060;2023-08-06T12:27:16;9.60;;;7.00;;
43682;SDS011;29285;52.128;21.060;2023-08-06T12:32:18;12.50;;;7.40;;
43682;SDS011;29285;52.128;21.060;2023-08-06T12:37:20;8.30;;;7.50;;
43682;SDS011;29285;52.128;21.060;2023-08-06T12:42:22;9.30;;;6.70;;
43682;SDS011;29285;52.128;21.060;2023-08-06T12:47:25;8.50;;;6.60;;
43682;SDS011;29285;52.128;21.060;2023-08-06T12:52:27;8.30;;;7.30;;
43682;SDS011;29285;52.128;21.060;2023-08-06T12:57:28;8.90;;;6.70;;
43682;SDS011;29285;52.128;21.060;2023-08-06T13:02:30;10.90;;;6.60;;
43682;SDS011;29285;52.128;21.060;2023-08-06T13:07:32;7.70;;;6.50;;
43682;SDS011;29285;52.128;21.060;2023-08-06T13:12:34;8.40;;;6.80;;
43682;SDS011;29285;52.128;21.060;2023-08-06T13:17:35;8.20;;;6.30;;
43682;SDS011;29285;52.128;21.060;2023-08-06T13:22:37;7.50;;;6.70;;
43682;SDS011;29285;52.128;21.060;2023-08-06T13:27:39;6.30;;;5.70;;
43682;SDS011;29285;52.128;21.060;2023-08-06T13:32:40;6.90;;;6.10;;
43682;SDS011;29285;52.128;21.060;2023-08-06T13:37:42;5.60;;;5.00;;
43682;SDS011;29285;52.128;21.060;2023-08-06T13:42:44;8.00;;;5.90;;
43682;SDS011;29285;52.128;21.060;2023-08-06T13:47:46;6.60;;;6.00;;
43682;SDS011;29285;52.128;21.060;2023-08-06T13:52:47;9.50;;;6.60;;
43682;SDS011;29285;52.128;21.060;2023-08-06T13:57:49;6.30;;;5.70;;
43682;SDS011;29285;52.128;21.060;2023-08-06T14:02:51;6.90;;;6.20;;
43682;SDS011;29285;52.128;21.060;2023-08-06T14:07:52;5.10;;;4.70;;
43682;SDS011;29285;52.128;21.060;2023-08-06T14:12:54;5.70;;;5.20;;
43682;SDS011;29285;52.128;21.060;2023-08-06T14:17:56;5.80;;;5.30;;
43682;SDS011;29285;52.128;21.060;2023-08-06T14:22:57;5.80;;;5.40;;
43682;SDS011;29285;52.128;21.060;2023-08-06T14:27:59;5.60;;;4.20;;
43682;SDS011;29285;52.128;21.060;2023-08-06T14:33:01;4.90;;;4.60;;
43682;SDS011;29285;52.128;21.060;2023-08-06T14:38:04;5.00;;;4.60;;
43682;SDS011;29285;52.128;21.060;2023-08-06T14:43:06;4.00;;;3.70;;
43682;SDS011;29285;52.128;21.060;2023-08-06T14:48:07;5.00;;;3.80;;
43682;SDS011;29285;52.128;21.060;2023-08-06T14:53:09;3.80;;;3.40;;
43682;SDS011;29285;52.128;21.060;2023-08-06T14:58:12;7.00;;;3.80;;
43682;SDS011;29285;52.128;21.060;2023-08-06T15:03:14;3.50;;;3.20;;
43682;SDS011;29285;52.128;21.060;2023-08-06T15:08:17;3.60;;;2.80;;
43682;SDS011;29285;52.128;21.060;2023-08-06T15:13:18;3.50;;;2.70;;
43682;SDS011;29285;52.128;21.060;2023-08-06T15:18:20;2.20;;;2.00;;
43682;SDS011;29285;52.128;21.060;2023-08-06T15:23:22;2.50;;;2.20;;
43682;SDS011;29285;52.128;21.060;2023-08-06T15:28:24;2.50;;;2.30;;
43682;SDS011;29285;52.128;21.060;2023-08-06T15:33:25;1.90;;;1.80;;
43682;SDS011;29285;52.128;21.060;2023-08-06T15:38:27;2.10;;;1.90;;
43682;SDS011;29285;52.128;21.060;2023-08-06T15:43:29;1.80;;;1.60;;
43682;SDS011;29285;52.128;21.060;2023-08-06T15:48:31;2.10;;;1.80;;
43682;SDS011;29285;52.128;21.060;2023-08-06T15:53:33;1.50;;;1.40;;
43682;SDS011;29285;52.128;21.060;2023-08-06T15:58:35;3.00;;;1.60;;
43682;SDS011;29285;52.128;21.060;2023-08-06T16:03:37;1.70;;;1.10;;
43682;SDS011;29285;52.128;21.060;2023-08-06T16:08:40;1.80;;;1.30;;
43682;SDS011;29285;52.128;21.060;2023-08-06T16:13:42;1.60;;;1.30;;
43682;SDS011;29285;52.128;21.060;2023-08-06T16:18:44;1.80;;;1.10;;
43682;SDS011;29285;52.128;21.060;2023-08-06T16:23:45;1.10;;;1.00;;
43682;SDS011;29285;52.128;21.060;2023-08-06T16:28:47;1.90;;;0.90;;
43682;SDS011;29285;52.128;21.060;2023-08-06T16:33:49;1.80;;;1.00;;
43682;SDS011;29285;52.128;21.060;2023-08-06T16:38:51;1.10;;;1.00;;
43682;SDS011;29285;52.128;21.060;2023-08-06T16:43:54;2.50;;;0.90;;
43682;SDS011;29285;52.128;21.060;2023-08-06T16:48:56;2.20;;;1.00;;
43682;SDS011;29285;52.128;21.060;2023-08-06T16:53:57;1.00;;;0.90;;
43682;SDS011;29285;52.128;21.060;2023-08-06T16:58:59;2.40;;;0.80;;
43682;SDS011;29285;52.128;21.060;2023-08-06T17:04:01;0.70;;;0.70;;
43682;SDS011;29285;52.128;21.060;2023-08-06T17:09:03;1.60;;;0.90;;
43682;SDS011;29285;52.128;21.060;2023-08-06T17:14:05;1.60;;;0.80;;
43682;SDS011;29285;52.128;21.060;2023-08-06T17:19:07;1.50;;;0.80;;
43682;SDS011;29285;52.128;21.060;2023-08-06T17:24:08;1.30;;;1.10;;
43682;SDS011;29285;52.128;21.060;2023-08-06T17:29:10;2.70;;;0.90;;
43682;SDS011;29285;52.128;21.060;2023-08-06T17:34:12;1.10;;;1.10;;
43682;SDS011;29285;52.128;21.060;2023-08-06T17:39:14;1.50;;;1.40;;
43682;SDS011;29285;52.128;21.060;2023-08-06T17:44:16;3.30;;;1.60;;
43682;SDS011;29285;52.128;21.060;2023-08-06T17:49:18;3.20;;;1.90;;
43682;SDS011;29285;52.128;21.060;2023-08-06T17:54:21;1.80;;;1.70;;
43682;SDS011;29285;52.128;21.060;2023-08-06T17:59:22;2.10;;;2.00;;
43682;SDS011;29285;52.128;21.060;2023-08-06T18:04:24;2.20;;;2.00;;
43682;SDS011;29285;52.128;21.060;2023-08-06T18:09:25;4.90;;;2.50;;
43682;SDS011;29285;52.128;21.060;2023-08-06T18:14:27;2.60;;;1.90;;
43682;SDS011;29285;52.128;21.060;2023-08-06T18:19:29;1.90;;;1.80;;
43682;SDS011;29285;52.128;21.060;2023-08-06T18:24:31;1.60;;;1.50;;
43682;SDS011;29285;52.128;21.060;2023-08-06T18:29:33;1.10;;;1.00;;
43682;SDS011;29285;52.128;21.060;2023-08-06T18:34:35;1.50;;;1.20;;
43682;SDS011;29285;52.128;21.060;2023-08-06T18:39:38;1.70;;;0.90;;
43682;SDS011;29285;52.128;21.060;2023-08-06T18:44:43;2.30;;;1.40;;
43682;SDS011;29285;52.128;21.060;2023-08-06T18:49:45;7.60;;;1.30;;
43682;SDS011;29285;52.128;21.060;2023-08-06T18:54:47;1.70;;;1.60;;
43682;SDS011;29285;52.128;21.060;2023-08-06T18:59:49;1.50;;;1.20;;
43682;SDS011;29285;52.128;21.060;2023-08-06T19:04:54;1.50;;;1.40;;
43682;SDS011;29285;52.128;21.060;2023-08-06T19:09:55;1.60;;;1.50;;
43682;SDS011;29285;52.128;21.060;2023-08-06T19:14:57;2.50;;;1.60;;
43682;SDS011;29285;52.128;21.060;2023-08-06T19:19:59;1.70;;;1.60;;
43682;SDS011;29285;52.128;21.060;2023-08-06T19:25:00;1.40;;;1.30;;
43682;SDS011;29285;52.128;21.060;2023-08-06T19:30:02;1.20;;;1.20;;
43682;SDS011;29285;52.128;21.060;2023-08-06T19:35:04;1.20;;;1.10;;
43682;SDS011;29285;52.128;21.060;2023-08-06T19:40:06;1.80;;;0.80;;
43682;SDS011;29285;52.128;21.060;2023-08-06T19:45:10;0.90;;;0.90;;
43682;SDS011;29285;52.128;21.060;2023-08-06T19:50:12;2.20;;;0.90;;
43682;SDS011;29285;52.128;21.060;2023-08-06T19:55:14;0.80;;;0.60;;
43682;SDS011;29285;52.128;21.060;2023-08-06T20:00:15;0.50;;;0.50;;
43682;SDS011;29285;52.128;21.060;2023-08-06T20:05:18;0.60;;;0.50;;
43682;SDS011;29285;52.128;21.060;2023-08-06T20:10:19;1.90;;;0.60;;
43682;SDS011;29285;52.128;21.060;2023-08-06T20:15:21;0.30;;;0.30;;
43682;SDS011;29285;52.128;21.060;2023-08-06T20:20:23;0.90;;;0.40;;
43682;SDS011;29285;52.128;21.060;2023-08-06T20:25:24;0.60;;;0.50;;
43682;SDS011;29285;52.128;21.060;2023-08-06T20:30:26;0.50;;;0.50;;
43682;SDS011;29285;52.128;21.060;2023-08-06T20:35:28;2.20;;;0.40;;
43682;SDS011;29285;52.128;21.060;2023-08-06T20:40:29;0.60;;;0.60;;
43682;SDS011;29285;52.128;21.060;2023-08-06T20:45:31;0.40;;;0.40;;
43682;SDS011;29285;52.128;21.060;2023-08-06T20:50:33;0.40;;;0.40;;
43682;SDS011;29285;52.128;21.060;2023-08-06T20:55:35;1.00;;;0.30;;
43682;SDS011;29285;52.128;21.060;2023-08-06T21:00:36;0.80;;;0.40;;
43682;SDS011;29285;52.128;21.060;2023-08-06T21:05:39;0.40;;;0.40;;
43682;SDS011;29285;52.128;21.060;2023-08-06T21:10:40;0.40;;;0.40;;
43682;SDS011;29285;52.128;21.060;2023-08-06T21:15:42;0.30;;;0.30;;
43682;SDS011;29285;52.128;21.060;2023-08-06T21:20:43;0.30;;;0.30;;
43682;SDS011;29285;52.128;21.060;2023-08-06T21:25:49;0.30;;;0.30;;
43682;SDS011;29285;52.128;21.060;2023-08-06T21:36:04;0.30;;;0.30;;
43682;SDS011;29285;52.128;21.060;2023-08-06T21:41:07;1.40;;;0.30;;
43682;SDS011;29285;52.128;21.060;2023-08-06T21:46:17;0.50;;;0.40;;
43682;SDS011;29285;52.128;21.060;2023-08-06T21:51:21;0.90;;;0.30;;
43682;SDS011;29285;52.128;21.060;2023-08-06T21:56:22;0.50;;;0.40;;
43682;SDS011;29285;52.128;21.060;2023-08-06T22:01:24;0.30;;;0.30;;
43682;SDS011;29285;52.128;21.060;2023-08-06T22:06:26;1.00;;;0.40;;
43682;SDS011;29285;52.128;21.060;2023-08-06T22:11:27;1.00;;;0.60;;
43682;SDS011;29285;52.128;21.060;2023-08-06T22:16:29;0.50;;;0.40;;
43682;SDS011;29285;52.128;21.060;2023-08-06T22:21:31;1.50;;;0.50;;
43682;SDS011;29285;52.128;21.060;2023-08-06T22:26:32;1.80;;;0.30;;
43682;SDS011;29285;52.128;21.060;2023-08-06T22:31:34;1.10;;;0.20;;
43682;SDS011;29285;52.128;21.060;2023-08-06T22:36:36;0.30;;;0.30;;
43682;SDS011;29285;52.128;21.060;2023-08-06T22:41:37;0.90;;;0.20;;
43682;SDS011;29285;52.128;21.060;2023-08-06T22:46:39;0.70;;;0.30;;
43682;SDS011;29285;52.128;21.060;2023-08-06T22:51:41;0.10;;;0.10;;
43682;SDS011;29285;52.128;21.060;2023-08-06T22:56:42;0.10;;;0.10;;
43682;SDS011;29285;52.128;21.060;2023-08-06T23:01:44;0.50;;;0.20;;
43682;SDS011;29285;52.128;21.060;2023-08-06T23:06:46;2.00;;;0.30;;
43682;SDS011;29285;52.128;21.060;2023-08-06T23:11:47;1.00;;;0.40;;
43682;SDS011;29285;52.128;21.060;2023-08-06T23:16:49;0.20;;;0.20;;
43682;SDS011;29285;52.128;21.060;2023-08-06T23:21:51;0.40;;;0.10;;
43682;SDS011;29285;52.128;21.060;2023-08-06T23:26:53;1.30;;;0.40;;
43682;SDS011;29285;52.128;21.060;2023-08-06T23:31:55;0.20;;;0.20;;
43682;SDS011;29285;52.128;21.060;2023-08-06T23:36:56;0.60;;;0.20;;
43682;SDS011;29285;52.128;21.060;2023-08-06T23:41:58;0.30;;;0.20;;
43682;SDS011;29285;52.128;21.060;2023-08-06T23:47:00;0.30;;;0.20;;
43682;SDS011;29285;52.128;21.060;2023-08-06T23:52:02;0.70;;;0.30;;
43682;SDS011;29285;52.128;21.060;2023-08-06T23:57:03;1.40;;;0.20;;
